Flight Track Log - Related Links

Times and Time Zones

All times are in EST time to prevent confusion due to time zone crossing. See the N567MG flight status page for this flight to view local times or setup timezone preferences in your user account.

Time Position Orientation Groundspeed Altitude Reporting Facility
EST Latitude Longitude Course Direction KTS MPH feet Rate Location/Type
Tue 12:29:51 PM 26.4817 -81.8533 North 150 173 7,400  Level Miami Center
Tue 12:30:51 PM 26.5275 -81.8553 358° North 176 203 7,500 100 Climbing Miami Center
Tue 12:31:51 PM 26.5750 -81.8642 350° North 186 214 7,600 400 Climbing Miami Center
Tue 12:32:51 PM 26.6169 -81.8661 358° North 158 182 8,300 650 Climbing Miami Center
Tue 12:33:51 PM 26.6564 -81.8678 358° North 145 167 8,900 500 Climbing Miami Center
Tue 12:34:51 PM 26.6961 -81.8694 358° North 145 167 9,300 350 Climbing Miami Center
Tue 12:35:00 PM 26.8439 -81.7502 North  Level Estimated
Tue 12:35:51 PM 26.7397 -81.8736 355° North 157 181 9,600  Level Miami Center
Tue 12:36:51 PM 26.7919 -81.8736 360° North 167 192 9,500 -50 Descending Miami Center
Tue 12:37:51 PM 26.8378 -81.8731 North 162 186 9,500  Level Miami Center
Tue 12:38:51 PM 26.8817 -81.8728 360° North 162 186 9,500 50 Level Miami Center
Tue 12:39:51 PM 26.9214 -81.8719 North 167 192 9,600 50 Climbing Miami Center
Tue 12:40:51 PM 26.9694 -81.8694 North 173 199 9,600 -100 Level Miami Center
Tue 12:41:51 PM 27.0236 -81.8717 358° North 179 206 9,400 -50 Descending Miami Center
Tue 12:42:51 PM 27.0736 -81.8739 358° North 179 206 9,500  Climbing Miami Center
Tue 12:43:51 PM 27.1214 -81.8806 353° North 179 206 9,400  Descending Miami Center
Tue 12:44:51 PM 27.1714 -81.8828 358° North 179 206 9,500 100 Climbing Miami Center
Tue 12:45:51 PM 27.2214 -81.8850 358° North 179 206 9,600  Climbing Miami Center
Tue 12:46:51 PM 27.2694 -81.8894 355° North 179 206 9,500 -50 Descending Miami Center
Tue 12:47:51 PM 27.3194 -81.8892 360° North 179 206 9,500  Level Miami Center
Tue 12:48:51 PM 27.3672 -81.8914 358° North 179 206 9,500  Level Miami Center
Tue 12:49:51 PM 27.4175 -81.8936 358° North 179 206 9,500  Level Miami Center
Tue 12:50:51 PM 27.4653 -81.8933 360° North 179 206 9,500 -50 Level Miami Center
Tue 12:51:51 PM 27.5156 -81.8933 360° North 179 206 9,400 -50 Descending Miami Center
Tue 12:52:51 PM 27.5614 -81.8906 North 179 206 9,400  Level Miami Center
Tue 12:53:51 PM 27.6094 -81.8903 360° North 179 206 9,400 50 Level Miami Center
Tue 12:54:51 PM 27.6639 -81.8881 North 179 206 9,500 50 Climbing Miami Center
Tue 12:55:51 PM 27.7100 -81.8831 North 179 206 9,500  Level Miami Center
Tue 12:56:51 PM 27.7603 -81.8781 North 179 206 9,500  Level Miami Center
Tue 12:57:51 PM 27.8019 -81.8775 North 179 206 9,500 50 Level Miami Center
Tue 12:58:51 PM 27.8581 -81.8803 357° North 179 206 9,600  Climbing Miami Center
Tue 12:59:51 PM 27.9019 -81.8819 358° North 179 206 9,500 -50 Descending Miami Center
Tue 01:00:51 PM 27.9500 -81.8819 360° North 179 206 9,500  Level Miami Center
Tue 01:01:51 PM 27.9978 -81.8864 355° North 179 206 9,500  Level Miami Center
Tue 01:02:51 PM 28.0456 -81.8931 353° North 174 200 9,500  Level Miami Center
Tue 01:05:12 PM 28.1667 -81.9000 357° North 167 192 9,500  Level Orlando TRACON
Tue 01:06:12 PM 28.2000 -81.9167 336° Northwest 170 196 9,500 -50 Level Orlando TRACON
Tue 01:07:13 PM 28.2500 -81.9167 360° North 170 196 9,400 -50 Descending Orlando TRACON
Tue 01:08:13 PM 28.3000 -81.9167 360° North 167 192 9,400 50 Level Orlando TRACON
Tue 01:09:13 PM 28.3500 -81.9333 344° North 164 189 9,500 54 Climbing Orlando TRACON
Tue 01:10:05 PM 28.3842 -81.9369 355° North 162 186 9,500  Level Jacksonville Center
Tue 01:11:07 PM 28.4303 -81.9414 355° North 167 192 9,500  Level Jacksonville Center
Tue 01:12:07 PM 28.4825 -81.9408 North 170 196 9,500  Level Jacksonville Center
Tue 01:13:08 PM 28.5283 -81.9475 353° North 170 196 9,500  Level Jacksonville Center
Tue 01:14:09 PM 28.5764 -81.9564 351° North 170 196 9,500  Level Jacksonville Center
Tue 01:15:10 PM 28.6244 -81.9608 355° North 171 197 9,500  Level Jacksonville Center
Tue 01:16:11 PM 28.6744 -81.9625 358° North 170 196 9,500  Level Jacksonville Center
Tue 01:17:18 PM 28.7247 -81.9717 351° North 166 191 9,500  Level Jacksonville Center
Tue 01:18:19 PM 28.7686 -81.9856 344° North 166 191 9,500  Level Jacksonville Center
Tue 01:19:21 PM 28.8189 -81.9944 351° North 170 196 9,500 -52 Level Jacksonville Center
Tue 01:20:15 PM 28.8583 -82.0011 352° North 170 196 9,400  Descending Jacksonville Center
Tue 01:21:16 PM 28.9106 -82.0056 356° North 170 196 9,500 49 Climbing Jacksonville Center
Tue 01:22:17 PM 28.9544 -82.0144 350° North 169 194 9,500  Level Jacksonville Center
Tue 01:23:24 PM 29.0047 -82.0261 349° North 167 192 9,500  Level Jacksonville Center
Tue 01:24:26 PM 29.0508 -82.0400 345° North 164 189 9,500  Level Jacksonville Center
Tue 01:25:26 PM 29.0967 -82.0514 348° North 164 189 9,500  Level Jacksonville Center
Tue 01:26:27 PM 29.1428 -82.0700 341° North 163 188 9,500 49 Level Jacksonville Center
Tue 01:27:28 PM 29.1847 -82.0814 347° North 164 189 9,600  Climbing Jacksonville Center
Tue 01:28:30 PM 29.2286 -82.0956 344° North 165 190 9,500 -49 Descending Jacksonville Center
Tue 01:29:31 PM 29.2744 -82.1117 343° North 165 190 9,500  Level Jacksonville Center
Tue 01:30:38 PM 29.3228 -82.1281 344° North 168 193 9,500 47 Level Jacksonville Center
Tue 01:31:39 PM 29.3667 -82.1419 345° North 164 189 9,600  Climbing Jacksonville Center
Tue 01:32:40 PM 29.4125 -82.1606 341° North 166 191 9,500 -49 Descending Jacksonville Center
Tue 01:33:41 PM 29.4586 -82.1722 348° North 165 190 9,500  Level Jacksonville Center
Tue 01:34:42 PM 29.5025 -82.1839 347° North 166 191 9,500  Level Jacksonville Center
Tue 01:35:43 PM 29.5506 -82.2050 339° North 165 190 9,500  Level Jacksonville Center
Tue 01:36:44 PM 29.5925 -82.2192 344° North 164 189 9,500  Level Jacksonville Center
Tue 01:37:46 PM 29.6406 -82.2306 348° North 168 193 9,500  Level Jacksonville Center
Tue 01:38:41 PM 29.6844 -82.2353 355° North 168 193 9,500  Level Jacksonville Center
Tue 01:39:48 PM 29.7347 -82.2467 349° North 171 197 9,500  Level Jacksonville Center
Tue 01:40:49 PM 29.7825 -82.2511 355° North 172 198 9,500  Level Jacksonville Center
Tue 01:41:50 PM 29.8328 -82.2581 353° North 171 197 9,500 49 Level Jacksonville Center
Tue 01:42:51 PM 29.8808 -82.2625 355° North 171 197 9,600  Climbing Jacksonville Center
Tue 01:43:52 PM 29.9308 -82.2719 351° North 174 200 9,500  Descending Jacksonville Center
Tue 01:44:59 PM 29.9853 -82.2764 356° North 177 204 9,600  Climbing Jacksonville Center
Tue 01:46:00 PM 30.0333 -82.2831 353° North 173 199 9,500 -52 Descending Jacksonville Center
Tue 01:46:55 PM 30.0772 -82.2878 355° North 168 193 9,500  Level Jacksonville Center
Tue 01:47:56 PM 30.1231 -82.2947 353° North 168 193 9,500  Level Jacksonville Center
Tue 01:48:57 PM 30.1692 -82.2967 358° North 166 191 9,500  Level Jacksonville Center
Tue 01:49:52 PM 30.2108 -82.3014 354° North 163 188 9,500 52 Level Jacksonville Center
Tue 01:50:53 PM 30.2569 -82.3058 355° North 167 192 9,600 49 Climbing Jacksonville Center
Tue 01:51:54 PM 30.3050 -82.3153 350° North 169 194 9,600 49 Level Jacksonville Center
Tue 01:52:55 PM 30.3508 -82.3197 355° North 166 191 9,700  Climbing Jacksonville Center
Tue 01:53:56 PM 30.4011 -82.3267 353° North 166 191 9,600 -49 Descending Jacksonville Center
Tue 01:54:57 PM 30.4492 -82.3358 351° North 168 193 9,600  Level Jacksonville Center
Tue 01:55:44 PM 30.4867 -82.3453 348° North 170 196 9,600  Level Jacksonville Center
Tue 01:56:04 PM 30.4972 -82.3453 360° North 167 192 9,600  Level Jacksonville Center
Tue 01:56:44 PM 30.5306 -82.3522 350° North 170 196 9,600 -109 Level Jacksonville Center
Tue 01:56:59 PM 30.5411 -82.3522 360° North 170 196 9,500 -316 Descending Jacksonville Center
Tue 01:58:00 PM 30.5911 -82.3617 351° North 177 204 9,200 -532 Descending Jacksonville Center
Tue 02:00:56 PM 30.7353 -82.3922 350° North 183 211 7,400 -559 Descending Jacksonville Center
Tue 02:01:56 PM 30.7856 -82.4064 346° North 183 211 7,000 -550 Descending Jacksonville Center
Tue 02:02:56 PM 30.8356 -82.4256 342° North 183 211 6,300 -550 Descending Jacksonville Center
Tue 02:03:56 PM 30.8900 -82.4303 356° North 188 216 5,900 -350 Descending Jacksonville Center
Tue 02:04:56 PM 30.9422 -82.4372 353° North 188 216 5,600 -250 Descending Jacksonville Center
Tue 02:05:56 PM 30.9944 -82.4394 358° North 188 216 5,400 -100 Descending Jacksonville Center
Tue 02:06:56 PM 31.0425 -82.4489 350° North 182 209 5,400 50 Level Jacksonville Center
Tue 02:07:56 PM 31.0906 -82.4583 350° North 177 204 5,500 50 Climbing Jacksonville Center
Tue 02:08:56 PM 31.1406 -82.4581 360° North 177 204 5,500  Level Jacksonville Center
Tue 02:09:56 PM 31.1908 -82.4578 360° North 177 204 5,500 -50 Level Jacksonville Center
Tue 02:10:56 PM 31.2386 -82.4528 North 177 204 5,400 -50 Descending Jacksonville Center
Tue 02:11:56 PM 31.2889 -82.4478 North 177 204 5,400 100 Level Jacksonville Center
Tue 02:12:56 PM 31.3389 -82.4475 360° North 177 204 5,600 -50 Climbing Jacksonville Center
Tue 02:13:56 PM 31.3933 -82.4447 North 182 209 5,300 -350 Descending Jacksonville Center
Tue 02:14:56 PM 31.4475 -82.4347 North 187 215 4,900 -400 Descending Jacksonville Center
Tue 02:15:56 PM 31.4997 -82.4200 14° North 193 222 4,500 -400 Descending Jacksonville Center
Tue 02:16:56 PM 31.5558 -82.4050 13° North 199 229 4,100 -400 Descending Jacksonville Center
Tue 02:17:56 PM 31.6081 -82.3997 North 199 229 3,700 -350 Descending Jacksonville Center
Tue 02:18:56 PM 31.6603 -82.3947 North 199 229 3,400 -250 Descending Jacksonville Center
Tue 02:19:56 PM 31.7125 -82.3919 North 193 222 3,200 -200 Descending Jacksonville Center
Tue 02:20:56 PM 31.7606 -82.3892 North 188 216 3,000 -200 Descending Jacksonville Center
Tue 02:21:56 PM 31.8128 -82.3817 North 181 208 2,800 -150 Descending Jacksonville Center
Tue 02:22:56 PM 31.8628 -82.3739 North 181 208 2,700 -100 Descending Jacksonville Center
Tue 02:23:56 PM 31.9150 -82.3689 North 181 208 2,600 -100 Descending Jacksonville Center
Tue 02:24:56 PM 31.9586 -82.3611 North 181 208 2,500 1,450 Descending Jacksonville Center
Tue 02:25:56 PM 32.0089 -82.3586 North 181 208 5,500 3,000 Climbing Jacksonville Center

Login

Don't have an account? Register now (free) for customized features, flight alerts, and more!